Anchorage, AK

2:41 AM AKDT on October 21, 2014 (GMT -0800)
Merrill | Change Station
CLOSE
Current Station
Airport
Location: Anchorage Merrill,
Elevation: 135 ft
Nearby Weather Stations

Elev 135 ft 61.22 °N, 149.85 °W | Updated 48 minutes ago

Light Rain
Light Rain
34 °F
Feels Like 31 °F
N
4
Wind Variable Wind from North

Today
High -- | Low -- °F
--% Chance of Precip.
Yesterday
High -- | Low -- °F
Precip. -- in
8:58 AM 6:28 PM
Waning Crescent, 6% visible
Pressure 29.26 in
Visibility 10.0 miles
Clouds Few 700 ft
Scattered Clouds 5000 ft
Mostly Cloudy 10000 ft
Windchill 31 °F
Dew Point 31 °F
Humidity 89%
Rainfall 0.00 in
Snow Depth 1 in , 8 in
UV 0 out of 12
Pollen Not available.
Air Quality Not available.
Flu Activity Not available.
METAR PAMR 210953Z 36003KT 10SM -RA FEW007 SCT050 BKN100 01/M01 A2926 RMK AO2 SLP909 P0000 T00111006

More Conditions Fewer Conditions

Pressure 29.26 in
Visibility 10.0 miles
Clouds Few 700 ft
Scattered Clouds 5000 ft
Mostly Cloudy 10000 ft
Windchill 31 °F
Dew Point 31 °F
Humidity 89%
Rainfall 0.00 in
Snow Depth 1 in , 8 in
UV 0 out of 12
Pollen Not available.
Air Quality Not available.
Flu Activity Not available.
METAR PAMR 210953Z 36003KT 10SM -RA FEW007 SCT050 BKN100 01/M01 A2926 RMK AO2 SLP909 P0000 T00111006

More Conditions Fewer Conditions

10-Day Weather Forecast

Almanac

Astronomy

Oct. 21, 2014 Rise Set
Actual Time 8:58 AM AKDT 6:28 PM AKDT
Civil Twilight 8:13 AM AKDT 7:13 PM AKDT
Nautical Twilight 7:22 AM AKDT 8:03 PM AKDT
Astronomical Twilight 6:32 AM AKDT 8:53 PM AKDT
Moon 6:19 AM AKDT 5:54 PM AKDT
Length of Visible Light 11h 00m
Length of Day
9h 30m
Tomorrow will be 5m 37s shorter.
Waning Crescent, 6% of the Moon is Illuminated
Today
Waning Crescent
Oct 23
New
Oct 30
First Quarter
Nov 6
Full
Nov 14
Last Quarter

Today's Extremes

State Highs State Lows

Community

WunderPhotos

Upload Photos

1,763,625 photos uploaded!

Nearby

Snow Depth

Station Depth Elevation
Point Mackenzie 1 in 200 ft
Indian Pass 8 in 2300 ft
Turnagain Pass 10 in 1880 ft
Summit Creek 4 in 1400 ft
Grandview 5 in 1100 ft

Earthquake Activity

City Distance Mag. Time & Date
No recent earthquake activity has been reported nearby.
Minimum magnitude displayed is 2.5.

Coastal Water Temperatures

Place Temperature
No Stations Reporting

Nearby Weather Stations